createdAt,value
2023-06-15T00:01:39.680Z,52.01
2023-06-15T00:05:42.553Z,52.08
2023-06-15T00:09:44.196Z,51.48
2023-06-15T00:13:45.905Z,52.55
2023-06-15T00:17:48.256Z,51.64
2023-06-15T00:21:51.135Z,53.03
2023-06-15T00:25:52.601Z,53.27
2023-06-15T00:29:54.034Z,53.01
2023-06-15T00:33:55.794Z,53.87
2023-06-15T00:37:58.783Z,54.02
2023-06-15T00:42:00.475Z,53.14
2023-06-15T00:46:02.485Z,53.24
2023-06-15T00:50:04.789Z,53.54
2023-06-15T00:54:09.129Z,47.39
2023-06-15T00:58:11.694Z,45.68
2023-06-15T01:02:13.559Z,46.21
2023-06-15T01:06:16.099Z,49.42
2023-06-15T01:10:22.389Z,51.99
2023-06-15T01:14:29.015Z,51.23
2023-06-15T01:18:33.223Z,52.01
2023-06-15T01:22:43.907Z,52.21
2023-06-15T01:26:49.974Z,52.67
2023-06-15T01:30:53.767Z,53.09
2023-06-15T01:34:55.478Z,53.34
2023-06-15T01:38:58.957Z,53.90
2023-06-15T01:43:04.992Z,53.72
2023-06-15T01:47:07.912Z,53.71
2023-06-15T01:51:11.282Z,54.08
2023-06-15T01:55:13.179Z,54.27
2023-06-15T01:59:16.495Z,54.42
2023-06-15T02:03:18.114Z,54.33
2023-06-15T02:07:19.608Z,54.69
2023-06-15T02:11:21.358Z,54.60
2023-06-15T02:15:24.232Z,54.96
2023-06-15T02:19:25.769Z,55.25
2023-06-15T02:23:27.282Z,55.12
2023-06-15T02:27:28.801Z,56.29
2023-06-15T02:31:31.601Z,55.71
2023-06-15T02:35:33.078Z,55.70
2023-06-15T02:39:34.512Z,55.78
2023-06-15T02:43:35.966Z,56.25
2023-06-15T02:47:38.875Z,56.29
2023-06-15T02:51:42.157Z,56.58
2023-06-15T02:55:44.565Z,57.17
2023-06-15T02:59:46.616Z,57.23
2023-06-15T03:03:49.455Z,57.69
2023-06-15T03:07:50.897Z,58.24
2023-06-15T03:11:52.571Z,57.18
2023-06-15T03:15:54.756Z,57.95
2023-06-15T03:19:58.449Z,57.66
2023-06-15T03:24:00.224Z,57.71
2023-06-15T03:28:02.146Z,58.60
2023-06-15T03:32:05.031Z,58.82
2023-06-15T03:36:08.087Z,58.58
2023-06-15T03:40:11.928Z,59.46
2023-06-15T03:44:13.988Z,59.47
2023-06-15T03:48:15.400Z,59.23
2023-06-15T03:52:18.739Z,59.17
2023-06-15T03:56:20.485Z,59.96
2023-06-15T04:00:22.108Z,59.26
2023-06-15T04:04:23.825Z,59.53
2023-06-15T04:08:26.654Z,59.55
2023-06-15T04:12:28.090Z,59.89
2023-06-15T04:16:29.597Z,59.11
2023-06-15T04:20:31.369Z,59.31
2023-06-15T04:24:34.262Z,59.17
2023-06-15T04:28:35.667Z,59.03
2023-06-15T04:32:37.410Z,58.17
2023-06-15T04:36:38.976Z,58.54
2023-06-15T04:40:42.243Z,58.04
2023-06-15T04:44:43.678Z,56.28
2023-06-15T04:48:45.452Z,54.74
2023-06-15T04:52:46.920Z,55.91
2023-06-15T04:56:52.536Z,54.16
2023-06-15T05:00:53.991Z,54.36
2023-06-15T05:04:55.472Z,53.61
2023-06-15T05:08:56.965Z,55.50
2023-06-15T05:12:59.754Z,56.78
2023-06-15T05:17:01.403Z,56.95
2023-06-15T05:21:02.876Z,55.50
2023-06-15T05:25:05.255Z,53.87
2023-06-15T05:29:08.056Z,54.17
2023-06-15T05:33:09.579Z,54.36
2023-06-15T05:37:12.782Z,54.96
2023-06-15T05:41:14.365Z,53.26
2023-06-15T05:45:18.287Z,52.74
2023-06-15T05:49:20.054Z,46.07
2023-06-15T05:53:21.593Z,45.85
2023-06-15T05:57:24.154Z,46.22
2023-06-15T06:01:26.940Z,44.94
2023-06-15T06:05:28.383Z,42.90
2023-06-15T06:09:30.978Z,43.04
2023-06-15T06:13:34.466Z,42.92
2023-06-15T06:17:53.246Z,42.37
2023-06-15T06:21:59.030Z,41.97
2023-06-15T06:26:01.506Z,41.77
2023-06-15T06:30:03.519Z,42.08
2023-06-15T06:34:07.777Z,41.73
2023-06-15T06:38:09.327Z,42.22
2023-06-15T06:42:10.843Z,41.40
2023-06-15T06:46:12.284Z,41.58
2023-06-15T06:50:16.634Z,41.76
2023-06-15T06:54:18.386Z,41.18
2023-06-15T06:58:20.194Z,41.29
2023-06-15T07:02:21.819Z,40.46
2023-06-15T07:06:24.767Z,40.61
2023-06-15T07:10:26.453Z,40.66
2023-06-15T07:14:28.452Z,40.18
2023-06-15T07:18:30.181Z,40.47
2023-06-15T07:22:33.084Z,39.42
2023-06-15T07:26:34.640Z,38.81
2023-06-15T07:30:36.133Z,39.26
2023-06-15T07:34:37.971Z,38.89
2023-06-15T07:38:40.854Z,38.27
2023-06-15T07:42:42.682Z,37.76
2023-06-15T07:46:44.433Z,37.90
2023-06-15T07:50:46.462Z,36.58
2023-06-15T07:54:49.481Z,36.04
2023-06-15T07:58:51.174Z,36.06
2023-06-15T08:02:53.935Z,36.93
2023-06-15T08:06:55.451Z,35.82
2023-06-15T08:11:00.285Z,35.67
2023-06-15T08:15:01.746Z,35.10
2023-06-15T08:19:03.520Z,34.92
2023-06-15T08:23:04.962Z,34.60
2023-06-15T08:27:08.281Z,34.02
2023-06-15T08:31:10.998Z,33.85
2023-06-15T08:35:12.581Z,32.90
2023-06-15T08:39:14.324Z,31.83
2023-06-15T08:43:19.649Z,32.64
2023-06-15T08:47:21.751Z,31.83
2023-06-15T08:51:23.630Z,31.88
2023-06-15T08:55:26.523Z,32.01
2023-06-15T08:59:30.157Z,31.75
2023-06-15T09:03:33.613Z,31.07
2023-06-15T09:07:35.100Z,30.99
2023-06-15T09:11:40.345Z,31.44
2023-06-15T09:15:44.670Z,31.11
2023-06-15T09:19:46.403Z,30.10
2023-06-15T09:23:48.678Z,31.38
2023-06-15T09:27:57.551Z,29.66
2023-06-15T09:32:02.704Z,28.73
2023-06-15T09:36:06.674Z,29.30
2023-06-15T09:40:09.579Z,28.88
2023-06-15T09:44:11.354Z,30.12
2023-06-15T09:48:14.946Z,29.05
2023-06-15T09:52:16.461Z,29.89
2023-06-15T09:56:28.837Z,28.84
2023-06-15T10:00:33.611Z,28.11
2023-06-15T10:04:39.924Z,29.04
2023-06-15T10:08:43.911Z,28.78
2023-06-15T10:12:49.486Z,28.97
2023-06-15T10:16:59.429Z,28.89
2023-06-15T10:21:05.280Z,29.53
2023-06-15T10:25:09.275Z,30.37
2023-06-15T10:29:17.734Z,29.48
2023-06-15T10:33:24.069Z,32.25
2023-06-15T10:37:31.545Z,31.73
2023-06-15T10:41:33.331Z,31.58
2023-06-15T10:45:35.332Z,31.56
2023-06-15T10:49:37.306Z,32.42
2023-06-15T10:53:43.247Z,34.50
2023-06-15T10:57:44.699Z,34.08
2023-06-15T11:01:46.370Z,32.34
2023-06-15T11:05:47.858Z,31.19
2023-06-15T11:09:53.253Z,32.20
2023-06-15T11:13:59.753Z,30.80
2023-06-15T11:18:02.571Z,30.57
2023-06-15T11:22:05.760Z,29.03
2023-06-15T11:26:15.106Z,28.75
2023-06-15T11:30:16.848Z,27.22
2023-06-15T11:34:19.954Z,26.83
2023-06-15T11:38:24.641Z,27.42
2023-06-15T11:42:27.937Z,26.88
2023-06-15T11:46:29.738Z,26.67
2023-06-15T11:50:31.183Z,25.29
2023-06-15T11:54:50.512Z,25.47
2023-06-15T11:58:55.239Z,28.20
2023-06-15T12:02:57.990Z,29.32
2023-06-15T12:07:00.747Z,28.38
2023-06-15T12:11:03.805Z,27.48
2023-06-15T12:15:07.702Z,28.97
2023-06-15T12:19:09.958Z,29.04
2023-06-15T12:23:11.557Z,26.26
2023-06-15T12:27:14.049Z,25.56
2023-06-15T12:31:17.170Z,25.54
2023-06-15T12:35:29.834Z,25.79
2023-06-15T12:39:31.546Z,25.19
2023-06-15T12:43:33.042Z,25.49
2023-06-15T12:47:35.912Z,24.35
2023-06-15T12:51:38.672Z,23.29
2023-06-15T12:55:40.389Z,23.08
2023-06-15T12:59:43.027Z,23.98
2023-06-15T13:03:46.098Z,24.81
2023-06-15T13:07:48.611Z,24.55
2023-06-15T13:11:50.077Z,24.56
2023-06-15T13:15:51.734Z,23.99
2023-06-15T13:19:54.489Z,23.66
2023-06-15T13:23:55.979Z,23.74
2023-06-15T13:27:57.692Z,24.63
2023-06-15T13:31:59.217Z,24.55
2023-06-15T13:36:03.487Z,24.57
2023-06-15T13:40:07.355Z,24.69
2023-06-15T13:44:09.167Z,25.42
2023-06-15T13:48:12.959Z,24.95
2023-06-15T13:52:16.087Z,25.02
2023-06-15T13:56:18.600Z,24.31
2023-06-15T14:00:21.217Z,23.17
2023-06-15T14:04:23.059Z,24.33
2023-06-15T14:08:26.530Z,25.13
2023-06-15T14:12:31.851Z,25.39
2023-06-15T14:16:33.683Z,25.97
2023-06-15T14:20:35.466Z,26.54
2023-06-15T14:24:39.386Z,27.22
2023-06-15T14:28:40.861Z,27.51
2023-06-15T14:32:42.435Z,26.21
2023-06-15T14:36:45.973Z,26.03
2023-06-15T14:40:49.340Z,26.52
2023-06-15T14:44:51.067Z,26.10
2023-06-15T14:48:52.634Z,26.05
2023-06-15T14:53:00.288Z,26.62
2023-06-15T14:57:03.990Z,26.74
2023-06-15T15:01:05.963Z,28.12
2023-06-15T15:05:10.152Z,26.92
2023-06-15T15:09:12.076Z,26.35
2023-06-15T15:13:18.158Z,26.89
2023-06-15T15:17:21.627Z,27.48
2023-06-15T15:21:24.455Z,28.00
2023-06-15T15:25:26.921Z,26.55
2023-06-15T15:29:30.163Z,27.51
2023-06-15T15:33:32.295Z,27.64
2023-06-15T15:37:34.586Z,27.69
2023-06-15T15:41:38.062Z,27.79
2023-06-15T15:45:41.189Z,27.01
2023-06-15T15:49:44.307Z,27.20
2023-06-15T15:53:46.304Z,26.97
2023-06-15T15:57:47.742Z,27.22
2023-06-15T16:01:50.620Z,27.64
2023-06-15T16:05:52.366Z,26.78
2023-06-15T16:09:54.800Z,27.64
2023-06-15T16:13:56.454Z,27.03
2023-06-15T16:17:59.698Z,27.51
2023-06-15T16:22:01.227Z,27.84
2023-06-15T16:26:02.785Z,27.55
2023-06-15T16:30:08.870Z,27.67
2023-06-15T16:34:16.819Z,28.90
2023-06-15T16:38:18.538Z,30.13
2023-06-15T16:42:23.436Z,29.00
2023-06-15T16:46:26.056Z,30.62
2023-06-15T16:50:31.525Z,29.93
2023-06-15T16:54:33.972Z,28.79
2023-06-15T16:58:35.636Z,28.29
2023-06-15T17:02:39.416Z,28.09
2023-06-15T17:06:44.556Z,29.23
2023-06-15T17:10:46.540Z,31.30
2023-06-15T17:14:48.151Z,33.03
2023-06-15T17:18:51.191Z,32.76
2023-06-15T17:22:54.135Z,32.42
2023-06-15T17:26:58.031Z,33.57
2023-06-15T17:31:00.791Z,32.10
2023-06-15T17:35:03.914Z,32.18
2023-06-15T17:39:06.870Z,31.59
2023-06-15T17:43:08.802Z,29.78
2023-06-15T17:47:10.885Z,30.92
2023-06-15T17:51:12.410Z,31.29
2023-06-15T17:55:15.693Z,32.64
2023-06-15T17:59:17.572Z,31.48
2023-06-15T18:03:19.560Z,32.71
2023-06-15T18:07:21.238Z,31.67
2023-06-15T18:11:24.417Z,32.96
2023-06-15T18:15:26.308Z,31.48
2023-06-15T18:19:28.582Z,32.68
2023-06-15T18:23:30.451Z,32.03
2023-06-15T18:27:33.478Z,33.52
2023-06-15T18:31:36.354Z,39.88
2023-06-15T18:35:38.068Z,40.64
2023-06-15T18:39:39.663Z,40.66
2023-06-15T18:43:44.919Z,37.12
2023-06-15T18:47:46.482Z,39.05
2023-06-15T18:51:49.369Z,39.05
2023-06-15T18:55:51.118Z,37.29
2023-06-15T18:59:54.036Z,39.51
2023-06-15T19:03:55.598Z,39.96
2023-06-15T19:07:57.252Z,39.32
2023-06-15T19:11:58.929Z,40.43
2023-06-15T19:16:02.366Z,39.05
2023-06-15T19:20:04.936Z,41.11
2023-06-15T19:24:08.750Z,42.21
2023-06-15T19:28:10.548Z,42.61
2023-06-15T19:32:14.711Z,41.08
2023-06-15T19:36:16.261Z,42.71
2023-06-15T19:40:18.174Z,43.65
2023-06-15T19:44:23.020Z,42.88
2023-06-15T19:48:26.203Z,42.73
2023-06-15T19:52:27.728Z,42.71
2023-06-15T19:56:29.631Z,42.44
2023-06-15T20:00:31.383Z,42.77
2023-06-15T20:04:34.562Z,43.87
2023-06-15T20:08:39.901Z,45.30
2023-06-15T20:12:41.610Z,44.41
2023-06-15T20:16:43.192Z,44.06
2023-06-15T20:20:46.237Z,43.03
2023-06-15T20:24:48.364Z,46.13
2023-06-15T20:28:50.221Z,45.46
2023-06-15T20:32:51.813Z,45.37
2023-06-15T20:36:54.699Z,45.50
2023-06-15T20:40:58.917Z,44.97
2023-06-15T20:45:02.213Z,44.55
2023-06-15T20:49:04.960Z,46.28
2023-06-15T20:53:09.225Z,45.88
2023-06-15T20:57:12.278Z,45.79
2023-06-15T21:01:15.280Z,44.67
2023-06-15T21:05:17.359Z,45.96
2023-06-15T21:09:20.720Z,45.57
2023-06-15T21:13:22.481Z,46.12
2023-06-15T21:17:25.438Z,46.06
2023-06-15T21:21:27.774Z,45.17
2023-06-15T21:25:31.376Z,46.39
2023-06-15T21:29:34.472Z,47.62
2023-06-15T21:33:38.457Z,46.75
2023-06-15T21:37:40.147Z,46.22
2023-06-15T21:41:44.079Z,46.59
2023-06-15T21:45:47.053Z,46.29
2023-06-15T21:49:49.538Z,47.20
2023-06-15T21:53:52.174Z,46.20
2023-06-15T21:57:55.973Z,45.83
2023-06-15T22:02:03.553Z,46.92
2023-06-15T22:06:05.448Z,46.27
2023-06-15T22:10:09.531Z,46.20
2023-06-15T22:14:12.798Z,46.09
2023-06-15T22:18:15.742Z,46.30
2023-06-15T22:22:17.374Z,46.59
2023-06-15T22:26:19.649Z,46.74
2023-06-15T22:30:22.910Z,46.59
2023-06-15T22:34:25.132Z,45.49
2023-06-15T22:38:27.439Z,45.74
2023-06-15T22:42:29.062Z,47.39
2023-06-15T22:46:32.459Z,46.92
2023-06-15T22:50:34.250Z,46.80
2023-06-15T22:54:36.757Z,46.83
2023-06-15T22:58:38.766Z,47.58
2023-06-15T23:02:41.992Z,45.61
2023-06-15T23:06:45.183Z,45.82
2023-06-15T23:10:46.842Z,45.09
2023-06-15T23:14:48.735Z,45.48
2023-06-15T23:18:54.988Z,46.36
2023-06-15T23:22:56.904Z,46.25
2023-06-15T23:26:58.811Z,48.64
2023-06-15T23:31:01.013Z,48.52
2023-06-15T23:35:08.685Z,48.86
2023-06-15T23:39:12.405Z,48.88
2023-06-15T23:43:15.302Z,49.57
2023-06-15T23:47:17.120Z,48.67
2023-06-15T23:51:21.851Z,48.41
2023-06-15T23:55:23.979Z,48.26
2023-06-15T23:59:25.792Z,49.58
